North Dighton, MA

41° 51' 30"N, 71° 08' 44"W, Elevation 95 ft.
Eastern Time

Hourly observations for the last 72 hours

Date Time Temperature (°F) Humi-
dity

(%)
Wind
(mph)
Pressure Rain (in) Sun
(W/m2)
UV ET
(in)
Air Dew 6 Hour 1 Hr 3 Hr 6 Hr Day
Alt
(in)
Sea
Level

(mb)
Max Min
2 23:00 40.0 38.1 93 NNW 10 G 23 29.45 997.3 0.05 0.12 0 0.0 0.075
2 22:00 39.7 37.6 92 NNW 14 G 22 29.46 997.7 0.04 0.12 0 0.0 0.074
2 21:00 40.2 37.8 91 NNW 15 G 23 29.48 998.2 0.01 0.08 0 0.0 0.073
2 20:00 41.0 38.3 49.3 40.9 90 NW 16 G 23 29.48 998.2 0.02 0.03 0.07 0 0.0 0.072
2 19:00 41.8 38.5 88 NW 15 G 22 29.47 998.1 0.02 0.07 5 0.0 0.070
2 18:00 44.3 39.5 83 NNW 16 G 27 29.47 998.0 0.05 47 0.0 0.067
2 17:00 45.4 40.9 84 NNW 17 G 30 29.46 997.7 0.01 0.01 0.05 146 0.5 0.063
2 16:00 46.2 41.3 83 NW 16 G 23 29.46 997.7 0.04 181 0.9 0.058
2 15:00 47.8 41.6 79 N 11 G 26 29.47 998.0 0.04 239 1.3 0.051
2 14:00 48.8 41.6 50.5 40.8 76 NNW 10 G 22 29.47 998.1 0.01 0.01 0.04 257 1.7 0.044
2 13:00 50.2 40.1 68 NNW 16 G 27 29.47 998.0 0.04 267 1.9 0.035
2 12:00 49.6 40.2 70 NW 10 G 18 29.49 998.5 0.01 0.04 462 2.8 0.026
2 11:00 47.1 39.2 74 NNW 12 G 22 29.51 999.3 0.03 394 2.3 0.018
2 10:00 43.8 37.7 79 NNW 15 G 24 29.53 1000.1 0.03 360 1.7 0.013
2 09:00 43.1 36.4 77 NW 12 G 24 29.55 1000.5 0.03 195 0.8 0.009
2 08:00 40.8 35.4 41.8 37.9 81 NW 10 G 16 29.55 1000.8 0.01 0.03 0.03 148 0.0 0.007
2 07:00 39.0 35.2 86 NW 7 G 11 29.57 1001.2 0.03 25 0.0 0.006
2 06:00 38.1 34.9 88 NNW 7 G 14 29.56 1001.0 0.01 0.03 0 0.0 0.005
2 05:00 38.3 34.8 87 NW 9 G 13 29.57 1001.5 0.02 0.02 0.02 0 0.0 0.004
2 04:00 40.2 34.5 80 NNW 7 G 20 29.58 1001.9 0.00 0 0.0 0.003
2 03:00 41.6 34.9 77 N 11 G 19 29.59 1002.1 0.00 0 0.0 0.002
2 02:00 41.6 34.6 41.7 39.1 76 N 7 G 15 29.61 1002.8 0.00 0 0.0 0.001
2 01:00 41.1 34.4 77 NNW 6 G 12 29.63 1003.5 0.00 0 0.0 0.000
2 00:00 40.2 34.2 79 N 4 G 12 29.65 1004.1 0.00 0 0.0 0.058
1 23:00 39.3 34.0 81 NNW 5 G 8 29.67 1004.6 0.00 0 0.0 0.057
1 22:00 39.6 33.9 80 N 5 G 9 29.68 1005.0 0.00 0 0.0 0.056
1 21:00 39.8 33.5 78 N 3 G 8 29.70 1005.7 0.00 0 0.0 0.055
1 20:00 39.9 32.6 43.8 39.9 75 N 3 G 8 29.69 1005.4 0.00 0 0.0 0.054
1 19:00 41.2 32.9 72 NNE 6 G 15 29.70 1005.8 0.00 21 0.0 0.052
1 18:00 42.4 33.3 70 N 8 G 18 29.72 1006.4 0.00 56 0.0 0.047
1 17:00 43.0 33.2 68 NNE 10 G 24 29.72 1006.4 0.00 301 0.7 0.042
1 16:00 41.0 32.3 71 N 12 G 22 29.73 1006.8 0.00 185 0.8 0.037
1 15:00 40.9 32.2 71 N 12 G 26 29.75 1007.3 0.00 299 1.5 0.032
1 14:00 41.5 32.8 41.8 33.3 71 N 12 G 19 29.75 1007.5 0.00 343 1.9 0.025
1 13:00 41.5 33.5 73 NNE 12 G 21 29.77 1008.2 0.00 306 1.8 0.018
1 12:00 39.8 32.2 74 N 6 G 14 29.78 1008.6 0.00 230 1.3 0.013
1 11:00 39.0 30.7 72 NE 9 G 19 29.80 1009.1 0.00 197 1.1 0.008
1 10:00 39.8 32.2 74 NE 12 G 22 29.81 1009.4 0.00 262 1.1 0.004
1 09:00 37.4 34.7 90 N 3 G 11 29.83 1010.2 0.00 292 0.9 0.001
1 08:00 33.3 31.0 33.3 29.1 91 NNW 5 G 12 29.84 1010.5 0.00 70 0.0 0.000
1 07:00 30.7 28.4 91 NNW 2 G 4 29.83 1010.1 0.00 35 0.0 0.000
1 06:00 30.7 28.1 90 NNW 2 G 6 29.83 1010.1 0.00 0 0.0 0.000
1 05:00 31.5 28.9 90 N 5 G 10 29.84 1010.7 0.00 0 0.0 0.000
1 04:00 32.0 29.4 90 N 4 G 6 29.89 1012.3 0.00 0 0.0 0.000
1 03:00 31.0 29.2 93 NNW 5 G 9 29.89 1012.1 0.00 0 0.0 0.000
1 02:00 29.1 27.6 35.1 28.0 94 NNW 2 G 4 29.91 1012.9 0.00 0 0.0 0.000
1 01:00 28.8 26.8 92 NW 1 G 3 29.93 1013.7 0.00 0 0.0 0.000
1 00:00 29.2 27.2 92 NNW 3 G 5 29.95 1014.3 0.01 0 0.0 0.094
31 23:00 29.2 26.9 91 WNW 1 G 2 29.97 1014.8 0.01 0 0.0 0.094
31 22:00 30.8 27.7 88 N 0 G 2 29.97 1015.0 0.01 0 0.0 0.094
31 21:00 33.1 28.2 82 NNE 3 G 8 29.99 1015.5 0.01 0 0.0 0.093
31 20:00 35.1 28.9 45.2 35.1 78 ENE 6 G 12 29.99 1015.5 0.01 0 0.0 0.092
31 19:00 38.0 29.8 72 ENE 2 G 12 29.98 1015.1 0.01 11 0.0 0.089
31 18:00 42.1 30.8 64 ENE 9 G 14 29.97 1015.0 0.01 181 0.0 0.083
31 17:00 44.6 31.6 60 ENE 4 G 13 29.97 1014.9 0.01 383 0.8 0.074
31 16:00 43.5 29.7 58 E 7 G 16 29.99 1015.6 0.01 571 1.7 0.062
31 15:00 43.0 30.1 60 E 6 G 15 30.01 1016.2 0.01 719 2.7 0.048
31 14:00 42.2 29.7 42.8 35.9 61 NE 8 G 17 30.02 1016.5 0.01 826 3.7 0.034
31 13:00 40.4 30.7 68 N 10 G 17 30.01 1016.5 0.01 937 4.2 0.023
31 12:00 40.2 31.2 70 NE 10 G 18 30.01 1016.5 0.01 383 2.3 0.013
31 11:00 39.2 31.6 74 NNE 11 G 16 30.03 1017.1 0.01 397 1.9 0.007
31 10:00 37.6 32.6 82 NNE 10 G 16 30.05 1017.8 0.01 174 0.8 0.004
31 09:00 37.4 34.2 88 N 8 G 14 30.06 1018.0 0.01 84 0.0 0.001
31 08:00 35.9 34.1 36.6 35.4 93 NNW 8 G 14 30.05 1017.6 0.01 0.01 104 0.0 0.000
31 07:00 35.5 33.9 94 N 6 G 13 30.02 1016.8 0.01 26 0.0 0.000
31 06:00 35.7 34.4 95 N 6 G 11 30.01 1016.3 0.01 0 0.0 0.000
31 05:00 36.0 34.7 95 N 4 G 12 30.00 1016.1 0.01 0.01 0.01 0 0.0 0.000
31 04:00 36.1 34.8 95 NNE 4 G 12 30.00 1016.0 0.00 0 0.0 0.000
31 03:00 36.4 35.1 95 NNE 4 G 9 30.00 1016.1 0.00 0 0.0 0.000
31 02:00 36.5 34.9 39.1 36.5 94 NNE 4 G 10 30.01 1016.3 0.01 0.00 0 0.0 0.000
31 01:00 37.1 35.5 94 NNE 2 G 14 29.99 1015.6 0.00 0 0.0 0.000
31 00:00 37.5 35.9 94 NE 7 G 13 30.00 1015.9 0.06 0 0.0 0.028

Data generated by WxSolution Version 1.9.1.8, Build 2020.02.16.